Timeline UpdatesTrip UpdatesNews PostsPvt PostsTravel TipsAdmin PostsConv PostsFollowed PostsChat RequestsBlog PostsPNR Posts

Disclaimer
Search
 
 
Sun Sep 21, 2014 09:36:30 ISTHomeTrainsΣChainsAtlasPNRForumGalleryNewsFAQTripsMembersLoginFeedback
No Recent News for this Train
Other Trains in the News **new
Latest...
.
Mon Sep 01, 2014 (09:35PM)
⇐ Return Journey: Train# 13019

13020/Bagh Express

Time-Table HAS CHANGED.
Sep 01 (11:39PM)
Change Departure Station:
Change Arrival Station:
Post a Train Travel TipPost a Train Travel Tip **new
Post a Comment/Question/Picture/VideoPost a Comment/Question/Picture/Video
Pantry/Catering
✕ NO Pantry Car
✓ Catering Avbl
Loco/Rake Reversals
LJN/Lucknow Junction NER (6); RMU/Rampur Junction (3);
RSA - Rake Sharing
Rake/Coach Composition
LOCO-SLR-GS-GS-A1-B1-S7-S6-S5-S4-S3-S2-S1-GS-GS-GS-SLR
Loco
IZN WDP-4D (KGM-BJU); HWH WAP-4 (BJU-HWH)
News    PNR    Forum    Time-Table    Availability    Fare Chart    Map    Arr/Dep History    Trips    Gallery    ΣChains    X/O    Timeline    
Travel Time: 35h 18m    57 halts    Distance: 1332 km    Avg Speed: 37 km/hr
Type: Mail/Express
Zone: ER/Eastern
Departs @ 21:55
Platform# 1
SMTWTFS
Kathgodam/KGM 
Arrives @ 09:13 +2 nights
Platform# ???
SMTWTFS
Andal Junction/UDL 

57 halts. 221 intermediate Stations between Kathgodam and Andal Junction

Show ALL intermediate Stations  Show Old Time-Table

#CodeStation NameX/OArrivesAvgDepartsAvgHaltPFDay#KmSpeedElevZoneAddress
1KGMKathgodam (3)»  -21:55-110.023520mNERKathgodam, Uttarakhand
2HDWHaldwani (3)X  22:11 22:10-22:13 22:15-2 5m115.933443mNERHaldwani, Uttarakhand
3LKULal Kuan Junction (4)  22:45-22:50 22:47-5 2m--122.335262mNERLalkuan, Uttarakhand
4HLDDHaldi Road  22:59 23:00-23:01 23:02-2m--129.960236mNERNH 87, Uttarakhand
5RUPCRudrapur City (2)  23:15 23:16-23:17 23:18-2m--143.964208mNERUdham Singh Nagar, Uttarakhand
6BLQRBilaspur Road (1)  23:34 23:35-23:36 23:37-2m1161.934196mNERRampur, Uttar Pradesh
7RMURampur Junction (3)XO00:20 00:25-00:45 00:50-25m--288.871190mNRRampur, Uttar Pradesh
8BEBareilly Junction (4)XO  01:38 01:43-01:46 01:50-8 7m12151.868174mNRBareilly, Uttar Pradesh
9SPNShahjahanpur Junction (3)  02:52-02:57-5m--2222.340156mNRShahjahanpur, Uttar Pradesh
10ROZARoza Junction (4)X  03:05 03:08-03:07 03:15-2 7m--2229.686156mNRShahjahanpur, Uttar Pradesh
11HRIHardoi (5)X03:55 03:54-03:57 03:56-2m32285.251146mNRHardoi, Uttar Pradesh
12LJNLucknow Junction NER (6)X05:55-06:20-25m12386.314126mNERLucknow, Uttar Pradesh
13BNZBadshahnagar (2)  07:08-07:10-2m12397.437116mNERLucknow, Uttar Pradesh
14BBKBarabanki Junction (4)X  07:50-07:54-4m--2422.072122mNRPin-225001, Uttar Pradesh
15JLDJarwal Road (2)  08:34 08:30-08:36 08:32-2m--2465.148112mNERBehraich, Uttar Pradesh
16GDGonda Junction (3)X  09:15 09:30-09:25 09:40-10m22511.382110mNERGonda 271001, Uttar Pradesh
17BSTBasti (4)  10:35 10:45-10:40 10:50-5m--2599.76390mNERBasti 272001, Uttar Pradesh
18KLDKhalilabad (3)  11:02 11:18-11:04 11:20-2m--2629.23786mNERKhalilabad- 272175, Uttar Pradesh
19GKPGorakhpur Junction (10)X  12:20 12:15-12:40-20 25m--2663.26484mNERGorakhpur 273001, Uttar Pradesh
20CCChauri Chaura (2)  13:03-13:05-2m--2687.55084mNERGorakhpur- PinCode:- 273201, Uttar Pradesh
21DEOSDeoria Sadar (3)  13:28 13:35-13:30 13:40-2 5m--2712.37379mNERDeoria- 274001, Uttar Pradesh
22BTTBhatni Junction (5)  13:55 13:57-14:00 14:02-5m--2733.15573mNERDeoria, Uttar Pradesh
23BHTRBhatpar Rani (2)X  14:13 14:16-14:15 14:18-2m--2745.94873mNERDeoria, Uttar Pradesh
24BTKBankata (2)  14:23 14:28-14:25 14:30-2m--2754.04373mNERDeoria, Uttar Pradesh
25MWMairwa (2)  14:36 14:39-14:38 14:41-2m22760.54473mNERMairwa, Bihar
26ZRDEJiradei (2)X  14:59 14:56-15:01 14:58-2m--2771.53669mNERSiwan, Bihar
27SVSiwan Junction (4)X  15:15-15:25-10m--2781.87170mNERSiwan, Bihar
28DDADuraundha Junction (3)  15:40-15:42-2m--2799.64164mNERDistt: Siwan, Bihar
29CWChainwa (2)  15:51 15:54-15:53 15:55-2 1m--2807.71463mNERSiwan, Bihar
30EKMAEkma (3)O  16:11 16:26-16:13 16:28-2m--2815.15264mNERSaran, Bihar
31DDPDaudpur (2)O  16:33 16:38-16:35 16:40-2m--2823.72659mNERChhapra, Bihar
32CPRChhapra Junction (6)  17:25-17:35-10m--2843.06058mNERDistt: Saran, Bihar
33DGADighwara (2)X  18:05 18:06-18:07-2 1m--2873.96560mECR06158-281240, Bihar
34NYONayagaon (2)X  18:17 18:18-18:19-2 1m--2885.73653mECRNayagaon Sarai, Bihar
35SEESonpur Junction (4)X  18:39 18:38-18:47 18:43-8 5m--2897.03356mECRSaran, Bihar
36HJPHajipur Junction (3)  19:00 18:53-19:02 18:58-2 5m--2902.55655mECR06224-272230, Bihar
37BNRBhagwanpur (2)  19:17 19:19-19:19 19:20-2 1m12922.25560mECRBhagwanpur, Bihar
38GRLGoraul (2)X  19:27 19:29-19:29 19:30-2 1m12930.53357mECRVAISHALI, Bihar
39MFPMuzaffarpur Junction (6)X  20:20 20:17-20:30 20:22-10 5m22956.46957mECRMuzaffarpur, Bihar
40DOLDholi (2)X  20:51 20:44-20:53 20:45-2 1m--2981.562 ECRDistt. Muzaffarpur, Bihar
41KRBPKhudiram B Pusa (2)  21:05 20:58-21:07 20:59-2 1m--2994.95552mECRDistt. Samastipur, Bihar
42KPGMKarpurigram (3)X  21:14 21:07-21:16 21:08-2 1m--21002.21451mECRState Highway 49, Bihar
43SPJSamastipur Junction (9)X  21:40 21:35-21:50 21:40-10 5m--21008.56655mECRSamastipur, Bihar
44DSSDalsingh Sarai (2)X  22:10 22:01-22:12 22:02-2 1m221031.760 ECR06278-221238, Bihar
45BCABachwara Junction (3)O  22:23 22:13-22:25 22:14-2 1m--21042.71549mECRBegusarai, Bihar
46BJUBarauni Junction (9)23:20-00:10-50m--21059.12849mECRBegusarai, Bihar
47KIULKiul Junction (5)  01:35-01:40-5m--31098.33853mECRDist. Lakhisarai, Bihar
48JAJJhajha (4)X  03:05-03:15-10m--31151.670143mECRJhajha, Bihar
49STLSimultala (2)X  03:31-03:33-2m--31170.366247mERSimultala, Bihar
50JSMEJasidih Junction (5)X  03:56-04:01-5m--31195.762271mERJasidih, Jharkhand
51MDPMadhupur Junction (4)XO  05:20 04:29-05:24-4 55m--31224.881254mER06432-224478, Jharkhand
52VDSVidyasagar (2)X  05:47 05:42-05:49 05:44-2m231248.963250mERJamtara, Jharkhand
53JMTJamtara (2)  06:13 06:01-06:15 06:03-2m231266.848201mERJamtara, Jharkhand
54CRJChittaranjan (3)  06:34 06:21-06:36 06:25-2 4m231281.139182mERMihijam, Jharkhand
55RNPRRupnarayanpur (3)  06:43 06:32-06:45 06:34-2m131285.713191mERChittaranjan, West Bengal
56STNSitarampur Junction (5)XO  07:48 07:30-07:50-2 20m331297.413139mERG T Rd Before Asansol, West Bengal
57ASNAsansol Junction (7)  08:30-08:45-15m--31306.272113mERDist - Bardhaman, West Bengal
58RNGRaniGanj (4)  09:00-09:02-2m--31324.34092mERRaniganj, West Bengal
59UDLAndal Junction (6)•X  09:13-09:15-2m--31331.67386mERAndal, West Bengal
60DGRDurgapur (5)X  09:29-09:31-2m--31348.78571mERDurgapur, West Bengal
61PANPanagarh (4)X  09:42-09:44-2m--31364.36170mERKaksa, West Bengal
62BWNBarddhaman Junction (8)X  10:31-10:36-5m--31412.25934mERDist - Barddhaman, West Bengal
63BDCBandel Junction (7)  11:44-11:49-5m--31479.54614mERdist - HOOGHLY, West Bengal
64HWHKolkata Howrah Junction (23)  12:40--1331518.9-10mERHowrah 711101, West Bengal
Scroll to Top
Scroll to Bottom